createdAt,value
2023-02-17T00:01:11.564Z,4.1
2023-02-17T00:05:08.598Z,5.0
2023-02-17T00:10:08.056Z,2.8
2023-02-17T00:15:08.087Z,3.3
2023-02-17T00:20:08.116Z,2.6
2023-02-17T00:25:08.182Z,2.8
2023-02-17T00:30:08.248Z,4.4
2023-02-17T00:35:08.237Z,3.8
2023-02-17T00:40:08.270Z,2.6
2023-02-17T00:45:08.612Z,3.4
2023-02-17T00:50:08.650Z,3.2
2023-02-17T00:55:08.709Z,2.2
2023-02-17T01:00:08.780Z,1.7
2023-02-17T01:05:08.846Z,3.3
2023-02-17T01:10:08.839Z,2.8
2023-02-17T01:15:08.871Z,2.2
2023-02-17T01:20:08.964Z,3.1
2023-02-17T01:25:07.964Z,2.4
2023-02-17T01:30:08.055Z,2.5
2023-02-17T01:35:08.162Z,3.5
2023-02-17T01:40:08.254Z,2.3
2023-02-17T01:45:08.327Z,2.3
2023-02-17T01:50:08.400Z,3.2
2023-02-17T01:55:08.425Z,3.2
2023-02-17T02:00:08.467Z,2.4
2023-02-17T02:05:08.609Z,2.4
2023-02-17T02:10:08.661Z,2.9
2023-02-17T02:15:08.712Z,2.9
2023-02-17T02:20:08.717Z,3.2
2023-02-17T02:25:08.722Z,3.2
2023-02-17T02:30:08.793Z,3.9
2023-02-17T02:35:08.845Z,3.9
2023-02-17T02:40:08.933Z,3.0
2023-02-17T02:45:07.968Z,3.0
2023-02-17T02:50:07.975Z,4.2
2023-02-17T02:55:08.017Z,4.2
2023-02-17T03:00:08.055Z,1.4
2023-02-17T03:05:08.086Z,1.4
2023-02-17T03:10:08.125Z,2.4
2023-02-17T03:15:08.121Z,2.4
2023-02-17T03:20:08.142Z,3.3
2023-02-17T03:25:08.179Z,3.3
2023-02-17T03:30:08.283Z,3.3
2023-02-17T03:35:08.351Z,3.3
2023-02-17T03:40:08.382Z,2.3
2023-02-17T03:45:08.442Z,2.3
2023-02-17T03:50:08.510Z,3.3
2023-02-17T03:55:08.549Z,3.3
2023-02-17T04:00:08.568Z,3.5
2023-02-17T04:05:08.578Z,3.5
2023-02-17T04:10:09.514Z,4.2
2023-02-17T04:15:08.712Z,4.2
2023-02-17T04:20:08.805Z,5.5
2023-02-17T04:25:08.851Z,5.5
2023-02-17T04:30:10.797Z,2.9
2023-02-17T04:35:08.011Z,2.9
2023-02-17T04:40:08.015Z,3.2
2023-02-17T04:45:08.050Z,3.2
2023-02-17T04:50:08.091Z,3.4
2023-02-17T04:55:08.089Z,3.4
2023-02-17T05:00:08.075Z,4.0
2023-02-17T05:05:02.430Z,4.0
2023-02-17T05:10:02.597Z,3.5
2023-02-17T05:15:02.736Z,3.5
2023-02-17T05:20:02.828Z,2.7
2023-02-17T05:25:02.943Z,2.7
2023-02-17T05:30:03.075Z,5.4
2023-02-17T05:35:02.254Z,5.4
2023-02-17T05:40:02.455Z,3.8
2023-02-17T05:45:02.910Z,3.8
2023-02-17T05:50:03.058Z,3.4
2023-02-17T05:55:02.289Z,3.4
2023-02-17T06:00:02.453Z,4.6
2023-02-17T06:05:02.743Z,4.6
2023-02-17T06:10:03.031Z,2.4
2023-02-17T06:15:02.270Z,1.8
2023-02-17T06:20:02.522Z,3.8
2023-02-17T06:25:02.899Z,4.6
2023-02-17T06:30:03.231Z,4.2
2023-02-17T06:35:02.542Z,2.9
2023-02-17T06:40:02.651Z,3.4
2023-02-17T06:45:03.043Z,3.6
2023-02-17T06:50:02.176Z,3.5
2023-02-17T06:55:02.378Z,4.1
2023-02-17T07:00:02.492Z,3.3
2023-02-17T07:05:02.703Z,5.9
2023-02-17T07:10:02.995Z,5.9
2023-02-17T07:15:02.303Z,4.9
2023-02-17T07:20:02.425Z,4.9
2023-02-17T07:25:02.775Z,4.7
2023-02-17T07:30:03.106Z,4.7
2023-02-17T07:35:02.419Z,5.6
2023-02-17T07:40:02.579Z,5.6
2023-02-17T07:45:02.778Z,3.6
2023-02-17T07:50:02.983Z,3.6
2023-02-17T07:55:02.220Z,6.8
2023-02-17T08:00:02.396Z,4.1
2023-02-17T08:05:02.639Z,4.1
2023-02-17T08:10:02.973Z,4.8
2023-02-17T08:15:02.263Z,4.8
2023-02-17T08:20:08.636Z,5.0
2023-02-17T08:25:02.336Z,5.0
2023-02-17T08:30:02.573Z,5.5
2023-02-17T08:35:02.712Z,5.5
2023-02-17T08:40:02.981Z,6.0
2023-02-17T08:45:02.274Z,6.0
2023-02-17T08:50:02.625Z,4.4
2023-02-17T08:55:02.725Z,4.4
2023-02-17T09:00:04.850Z,4.4
2023-02-17T09:05:02.661Z,4.4
2023-02-17T09:10:02.979Z,4.3
2023-02-17T09:15:02.222Z,4.3
2023-02-17T09:20:02.448Z,4.3
2023-02-17T09:25:02.704Z,4.3
2023-02-17T09:30:03.079Z,4.5
2023-02-17T09:35:02.339Z,4.5
2023-02-17T09:40:02.415Z,3.4
2023-02-17T09:45:02.624Z,3.4
2023-02-17T09:50:02.860Z,8.8
2023-02-17T09:55:03.114Z,5.2
2023-02-17T10:00:02.305Z,3.9
2023-02-17T10:05:02.578Z,3.9
2023-02-17T10:10:03.004Z,4.7
2023-02-17T10:15:02.223Z,4.7
2023-02-17T10:20:10.409Z,4.9
2023-02-17T10:25:12.558Z,4.9
2023-02-17T10:30:02.737Z,3.8
2023-02-17T10:35:03.054Z,5.1
2023-02-17T10:40:02.227Z,5.1
2023-02-17T10:45:02.484Z,3.8
2023-02-17T10:50:02.745Z,3.8
2023-02-17T10:55:06.508Z,4.2
2023-02-17T11:00:02.737Z,4.2
2023-02-17T11:05:02.999Z,4.9
2023-02-17T11:10:02.237Z,4.8
2023-02-17T11:15:02.400Z,5.6
2023-02-17T11:20:02.714Z,5.6
2023-02-17T11:25:03.055Z,6.6
2023-02-17T11:30:02.272Z,6.6
2023-02-17T11:35:02.480Z,3.1
2023-02-17T11:40:02.611Z,3.1
2023-02-17T11:45:02.862Z,5.3
2023-02-17T11:50:02.994Z,5.3
2023-02-17T11:55:02.135Z,5.4
2023-02-17T12:00:02.378Z,5.1
2023-02-17T12:05:02.582Z,5.1
2023-02-17T12:10:02.803Z,4.1
2023-02-17T12:15:12.989Z,4.1
2023-02-17T12:20:02.186Z,4.1
2023-02-17T12:25:02.280Z,4.1
2023-02-17T12:30:02.510Z,5.6
2023-02-17T12:35:02.735Z,5.6
2023-02-17T12:40:03.048Z,6.0
2023-02-17T12:45:12.176Z,6.0
2023-02-17T12:50:02.445Z,4.0
2023-02-17T12:55:02.607Z,4.0
2023-02-17T13:00:02.745Z,6.0
2023-02-17T13:05:02.879Z,6.0
2023-02-17T13:10:03.004Z,3.1
2023-02-17T13:15:02.230Z,3.1
2023-02-17T13:20:02.461Z,4.9
2023-02-17T13:25:02.692Z,5.4
2023-02-17T13:30:03.037Z,5.9
2023-02-17T13:35:02.292Z,5.9
2023-02-17T13:40:02.364Z,4.2
2023-02-17T13:45:02.490Z,3.6
2023-02-17T13:50:02.630Z,2.9
2023-02-17T13:55:02.757Z,3.3
2023-02-17T14:00:12.866Z,5.7
2023-02-17T14:05:03.191Z,4.8
2023-02-17T14:10:02.394Z,4.8
2023-02-17T14:15:02.643Z,3.7
2023-02-17T14:20:02.857Z,4.5
2023-02-17T14:25:03.076Z,4.0
2023-02-17T14:30:05.148Z,2.8
2023-02-17T14:35:02.832Z,5.5
2023-02-17T14:40:03.096Z,3.4
2023-02-17T14:45:02.310Z,3.5
2023-02-17T14:50:02.493Z,3.4
2023-02-17T14:55:02.729Z,2.7
2023-02-17T15:00:02.925Z,2.7
2023-02-17T15:05:03.246Z,3.3
2023-02-17T15:10:02.417Z,4.2
2023-02-17T15:15:02.585Z,4.4
2023-02-17T15:20:02.760Z,4.4
2023-02-17T15:25:02.968Z,3.7
2023-02-17T15:30:02.205Z,3.7
2023-02-17T15:35:02.369Z,2.7
2023-02-17T15:40:02.662Z,2.7
2023-02-17T15:45:02.766Z,3.2
2023-02-17T15:50:02.968Z,3.2
2023-02-17T15:55:02.182Z,3.6
2023-02-17T16:00:02.273Z,2.0
2023-02-17T16:05:02.417Z,2.3
2023-02-17T16:10:02.703Z,3.5
2023-02-17T16:15:03.030Z,3.6
2023-02-17T16:20:02.294Z,3.6
2023-02-17T16:25:02.417Z,2.0
2023-02-17T16:30:12.671Z,2.0
2023-02-17T16:35:02.873Z,4.3
2023-02-17T16:40:03.110Z,4.3
2023-02-17T16:45:02.270Z,3.2
2023-02-17T16:50:02.530Z,3.2
2023-02-17T16:55:02.695Z,3.3
2023-02-17T17:00:02.840Z,4.8
2023-02-17T17:05:03.056Z,4.8
2023-02-17T17:10:15.718Z,3.5
2023-02-17T17:15:03.154Z,3.5
2023-02-17T17:20:02.352Z,3.3
2023-02-17T17:25:02.554Z,3.3
2023-02-17T17:30:02.765Z,3.5
2023-02-17T17:35:03.002Z,3.5
2023-02-17T17:40:02.263Z,3.1
2023-02-17T17:45:02.480Z,3.1
2023-02-17T17:50:02.606Z,5.6
2023-02-17T17:55:02.895Z,5.6
2023-02-17T18:00:03.105Z,4.8
2023-02-17T18:05:02.516Z,4.8
2023-02-17T18:10:02.788Z,3.0
2023-02-17T18:15:03.078Z,3.0
2023-02-17T18:20:02.376Z,4.6
2023-02-17T18:25:02.639Z,4.6
2023-02-17T18:30:02.855Z,3.0
2023-02-17T18:35:03.163Z,3.0
2023-02-17T18:40:02.301Z,3.3
2023-02-17T18:45:02.425Z,3.3
2023-02-17T18:50:02.583Z,3.1
2023-02-17T18:55:02.697Z,3.1
2023-02-17T19:00:02.839Z,2.7
2023-02-17T19:05:03.002Z,2.7
2023-02-17T19:10:02.182Z,2.7
2023-02-17T19:15:02.500Z,2.8
2023-02-17T19:20:02.736Z,3.4
2023-02-17T19:25:02.783Z,2.6
2023-02-17T19:30:02.988Z,3.0
2023-02-17T19:35:02.180Z,3.7
2023-02-17T19:40:02.266Z,3.8
2023-02-17T19:45:02.579Z,5.0
2023-02-17T19:50:02.745Z,5.3
2023-02-17T19:55:03.083Z,4.3
2023-02-17T20:00:02.266Z,3.7
2023-02-17T20:05:02.398Z,5.3
2023-02-17T20:10:02.650Z,3.0
2023-02-17T20:15:02.807Z,2.4
2023-02-17T20:20:03.077Z,3.2
2023-02-17T20:25:02.196Z,3.2
2023-02-17T20:30:02.550Z,5.4
2023-02-17T20:35:02.964Z,5.4
2023-02-17T20:40:02.135Z,3.5
2023-02-17T20:45:02.865Z,3.5
2023-02-17T20:50:07.765Z,1.8
2023-02-17T20:55:02.966Z,1.8
2023-02-17T21:00:02.129Z,2.6
2023-02-17T21:05:02.282Z,2.6
2023-02-17T21:10:02.416Z,2.6
2023-02-17T21:15:02.566Z,2.6
2023-02-17T21:20:02.837Z,2.8
2023-02-17T21:25:02.999Z,2.8
2023-02-17T21:30:02.293Z,1.7
2023-02-17T21:35:02.433Z,1.7
2023-02-17T21:40:02.602Z,2.5
2023-02-17T21:45:02.780Z,2.5
2023-02-17T21:50:03.058Z,1.6
2023-02-17T21:55:02.228Z,1.6
2023-02-17T22:00:02.318Z,2.8
2023-02-17T22:05:02.461Z,2.8
2023-02-17T22:10:02.707Z,2.7
2023-02-17T22:15:02.821Z,2.7
2023-02-17T22:20:02.958Z,1.8
2023-02-17T22:25:02.078Z,1.8
2023-02-17T22:30:02.425Z,2.0
2023-02-17T22:35:02.763Z,2.0
2023-02-17T22:40:02.973Z,2.6
2023-02-17T22:45:02.169Z,2.6
2023-02-17T22:50:02.388Z,2.6
2023-02-17T22:55:02.582Z,2.6
2023-02-17T23:00:02.860Z,2.3
2023-02-17T23:05:15.825Z,2.3
2023-02-17T23:10:08.848Z,2.8
2023-02-17T23:15:08.858Z,2.8
2023-02-17T23:20:08.896Z,1.6
2023-02-17T23:25:09.026Z,1.6
2023-02-17T23:30:08.051Z,2.9
2023-02-17T23:35:08.055Z,2.9
2023-02-17T23:40:08.116Z,3.1
2023-02-17T23:45:08.133Z,3.1
2023-02-17T23:50:08.156Z,1.7
2023-02-17T23:55:08.214Z,1.7
